METAR Data
IDs: Format: Raw Decoded Include TAF

Data at: 0610 UTC 24 Sep 2020

KAPA 240553Z 22005KT 10SM FEW120 SCT220 15/02 A3019 RMK AO2 SLP157 T01500017 10261 20144 58001

KAPA 240545Z 2406/2506 19005KT P6SM FEW120 BKN220
  FM241800 15008KT P6SM FEW120
  FM250200 21011KT P6SM FEW120